Edelstein, Illinois
Current Conditions -  °F | °C
As of 2:55 AM on Thursday 23 Oct 2014 (Local Time) from KC75 Reporting Station
Clear Clear  
Wind Chill: 32°   Ceiling: Unl
Heat Index: 37°   Visibility: 10mi
Dew Point: 32°   Wind: 6mph
Humidity: 83%   Direction: 170°S
Pressure: 30.21"   Gusts: NA
Location:  40.94°N, 89.63°W
Report Text: KC75 230755Z AUTO 17005KT 10SM CLR 03/00 A3021 RMK AO2 T00260000
Loading
Personal Weather Stations






























Interactive Weather Map
Tropical Storm Tracking
New forecast layout! Learn more

10-Day Weather Forecast

Advertisements
Track Severe Weather on mobile